createdAt,value
2018-03-01T00:00:10.774Z,997.7
2018-03-01T00:00:51.281Z,997.67
2018-03-01T00:01:31.803Z,997.68
2018-03-01T00:02:12.321Z,997.64
2018-03-01T00:02:52.846Z,997.69
2018-03-01T00:03:33.344Z,997.62
2018-03-01T00:04:13.866Z,997.66
2018-03-01T00:04:54.387Z,997.7
2018-03-01T00:05:34.908Z,997.65
2018-03-01T00:06:15.423Z,997.57
2018-03-01T00:06:55.943Z,997.61
2018-03-01T00:07:36.472Z,997.65
2018-03-01T00:08:16.987Z,997.6
2018-03-01T00:08:57.498Z,997.71
2018-03-01T00:09:38.005Z,997.57
2018-03-01T00:10:18.515Z,997.64
2018-03-01T00:10:59.020Z,997.58
2018-03-01T00:11:39.584Z,997.61
2018-03-01T00:12:20.092Z,997.66
2018-03-01T00:13:00.609Z,997.64
2018-03-01T00:13:41.134Z,997.63
2018-03-01T00:14:21.656Z,997.58
2018-03-01T00:15:02.187Z,997.63
2018-03-01T00:15:42.672Z,997.55
2018-03-01T00:16:23.182Z,997.55
2018-03-01T00:17:03.717Z,997.54
2018-03-01T00:17:44.271Z,997.54
2018-03-01T00:18:24.792Z,997.56
2018-03-01T00:19:05.304Z,997.57
2018-03-01T00:19:45.811Z,997.52
2018-03-01T00:20:26.315Z,997.64
2018-03-01T00:21:06.829Z,997.66
2018-03-01T00:21:47.337Z,997.59
2018-03-01T00:22:27.858Z,997.64
2018-03-01T00:23:08.371Z,997.59
2018-03-01T00:23:48.875Z,997.6
2018-03-01T00:24:29.383Z,997.6
2018-03-01T00:25:09.889Z,997.67
2018-03-01T00:25:50.411Z,997.51
2018-03-01T00:26:30.929Z,997.55
2018-03-01T00:27:11.432Z,997.47
2018-03-01T00:27:51.940Z,997.54
2018-03-01T00:28:32.467Z,997.6
2018-03-01T00:29:12.987Z,997.54
2018-03-01T00:29:53.496Z,997.6
2018-03-01T00:30:34.004Z,997.59
2018-03-01T00:31:14.528Z,997.56
2018-03-01T00:31:55.027Z,997.53
2018-03-01T00:32:35.549Z,997.47
2018-03-01T00:33:16.063Z,997.47
2018-03-01T00:33:56.575Z,997.43
2018-03-01T00:34:37.086Z,997.51
2018-03-01T00:35:17.600Z,997.43
2018-03-01T00:35:58.109Z,997.39
2018-03-01T00:36:38.640Z,997.42
2018-03-01T00:37:19.145Z,997.31
2018-03-01T00:37:59.653Z,997.38
2018-03-01T00:38:40.164Z,997.43
2018-03-01T00:39:20.697Z,997.37
2018-03-01T00:40:01.210Z,997.35
2018-03-01T00:40:41.737Z,997.36
2018-03-01T00:41:22.240Z,997.31
2018-03-01T00:42:02.761Z,997.32
2018-03-01T00:42:43.271Z,997.34
2018-03-01T00:43:23.776Z,997.31
2018-03-01T00:44:04.293Z,997.33
2018-03-01T00:44:44.804Z,997.28
2018-03-01T00:45:25.324Z,997.28
2018-03-01T00:46:05.859Z,997.31
2018-03-01T00:46:46.371Z,997.23
2018-03-01T00:47:26.895Z,997.21
2018-03-01T00:48:07.408Z,997.26
2018-03-01T00:48:47.924Z,997.12
2018-03-01T00:49:28.440Z,997.16
2018-03-01T00:50:08.964Z,997.15
2018-03-01T00:50:49.510Z,997.13
2018-03-01T00:51:29.968Z,997.07
2018-03-01T00:52:10.511Z,997.12
2018-03-01T00:52:51.018Z,997.11
2018-03-01T00:53:31.536Z,997.09
2018-03-01T00:54:12.041Z,997.09
2018-03-01T00:54:52.564Z,997.1
2018-03-01T00:55:33.082Z,997.25
2018-03-01T00:56:13.599Z,997.13
2018-03-01T00:56:54.104Z,997.19
2018-03-01T00:57:34.618Z,997.13
2018-03-01T00:58:15.140Z,997.13
2018-03-01T00:58:55.650Z,997.11
2018-03-01T00:59:36.203Z,997.13
2018-03-01T01:00:16.726Z,997.08
2018-03-01T01:00:57.243Z,997.08
2018-03-01T01:01:37.746Z,997.09
2018-03-01T01:02:18.244Z,997
2018-03-01T01:02:58.764Z,997.01
2018-03-01T01:03:39.287Z,997.01
2018-03-01T01:04:19.790Z,996.99
2018-03-01T01:05:00.306Z,996.97
2018-03-01T01:05:40.824Z,996.99
2018-03-01T01:06:21.338Z,996.96
2018-03-01T01:07:01.842Z,996.98
2018-03-01T01:07:42.351Z,996.96
2018-03-01T01:08:22.860Z,996.9
2018-03-01T01:09:03.379Z,996.98
2018-03-01T01:09:43.905Z,996.9
2018-03-01T01:10:24.430Z,996.89
2018-03-01T01:11:04.940Z,996.89
2018-03-01T01:11:45.475Z,996.93
2018-03-01T01:12:25.991Z,996.88
2018-03-01T01:13:06.509Z,996.88
2018-03-01T01:13:47.048Z,996.8
2018-03-01T01:14:27.534Z,996.83
2018-03-01T01:15:08.048Z,996.81
2018-03-01T01:15:48.636Z,996.79
2018-03-01T01:16:29.164Z,996.8
2018-03-01T01:17:09.689Z,996.71
2018-03-01T01:17:50.203Z,996.76
2018-03-01T01:18:30.711Z,996.8
2018-03-01T01:19:11.257Z,996.7
2018-03-01T01:19:51.750Z,996.68
2018-03-01T01:20:32.278Z,996.63
2018-03-01T01:21:12.791Z,996.58
2018-03-01T01:21:53.296Z,996.56
2018-03-01T01:22:33.809Z,996.63
2018-03-01T01:23:14.319Z,996.61
2018-03-01T01:23:54.823Z,996.55
2018-03-01T01:24:35.315Z,996.52
2018-03-01T01:25:15.818Z,996.46
2018-03-01T01:25:56.364Z,996.54
2018-03-01T01:26:36.866Z,996.58
2018-03-01T01:27:17.379Z,996.55
2018-03-01T01:27:57.918Z,996.51
2018-03-01T01:28:38.423Z,996.44
2018-03-01T01:29:18.929Z,996.47
2018-03-01T01:29:59.450Z,996.4
2018-03-01T01:30:39.950Z,996.34
2018-03-01T01:31:20.475Z,996.34
2018-03-01T01:32:00.985Z,996.35
2018-03-01T01:32:41.501Z,996.33
2018-03-01T01:33:22.024Z,996.33
2018-03-01T01:34:02.519Z,996.42
2018-03-01T01:34:43.035Z,996.27
2018-03-01T01:35:23.576Z,996.25
2018-03-01T01:36:04.088Z,996.21
2018-03-01T01:36:44.599Z,996.21
2018-03-01T01:37:25.133Z,996.16
2018-03-01T01:38:05.635Z,996.25
2018-03-01T01:38:46.139Z,996.27
2018-03-01T01:39:26.679Z,996.19
2018-03-01T01:40:07.194Z,996.19
2018-03-01T01:40:47.710Z,996.15
2018-03-01T01:41:28.276Z,996.26
2018-03-01T01:42:08.758Z,996.2
2018-03-01T01:42:49.262Z,996.15
2018-03-01T01:43:29.775Z,996.19
2018-03-01T01:44:10.281Z,996.17
2018-03-01T01:44:50.815Z,996.16
2018-03-01T01:45:31.338Z,996.15
2018-03-01T01:46:11.839Z,996.16
2018-03-01T01:46:52.368Z,996.16
2018-03-01T01:47:32.894Z,996.17
2018-03-01T01:48:13.415Z,996.19
2018-03-01T01:48:53.925Z,996.26
2018-03-01T01:49:34.449Z,996.18
2018-03-01T01:50:14.971Z,996.15
2018-03-01T01:50:55.478Z,996.11
2018-03-01T01:51:36.003Z,996.13
2018-03-01T01:52:16.509Z,996.19
2018-03-01T01:52:57.031Z,996.19
2018-03-01T01:53:37.568Z,996.18
2018-03-01T01:54:18.064Z,996.1
2018-03-01T01:54:58.574Z,996.18
2018-03-01T01:55:39.110Z,996.15
2018-03-01T01:56:19.620Z,996.15
2018-03-01T01:57:00.128Z,996.25
2018-03-01T01:57:40.661Z,996.15
2018-03-01T01:58:21.188Z,996.13
2018-03-01T01:59:01.701Z,996.1
2018-03-01T01:59:42.209Z,996.09
2018-03-01T02:00:22.729Z,996.05
2018-03-01T02:01:03.230Z,996.09
2018-03-01T02:01:43.732Z,995.99
2018-03-01T02:02:24.263Z,995.99
2018-03-01T02:03:04.784Z,996
2018-03-01T02:03:45.291Z,995.88
2018-03-01T02:04:25.797Z,995.87
2018-03-01T02:05:06.314Z,995.84
2018-03-01T02:05:46.823Z,995.86
2018-03-01T02:06:27.325Z,995.79
2018-03-01T02:07:07.834Z,995.87
2018-03-01T02:07:48.338Z,995.82
2018-03-01T02:08:28.841Z,995.87
2018-03-01T02:09:09.361Z,995.78
2018-03-01T02:09:49.860Z,995.82
2018-03-01T02:10:30.373Z,995.79
2018-03-01T02:11:10.892Z,995.85
2018-03-01T02:11:51.422Z,995.72
2018-03-01T02:12:31.955Z,995.73
2018-03-01T02:13:12.473Z,995.7
2018-03-01T02:13:52.983Z,995.66
2018-03-01T02:14:33.486Z,995.62
2018-03-01T02:15:14.011Z,995.6
2018-03-01T02:15:54.530Z,995.58
2018-03-01T02:16:35.053Z,995.6
2018-03-01T02:17:15.570Z,995.63
2018-03-01T02:17:56.090Z,995.61
2018-03-01T02:18:36.608Z,995.59
2018-03-01T02:19:17.118Z,995.61
2018-03-01T02:19:57.615Z,995.67
2018-03-01T02:20:38.130Z,995.7
2018-03-01T02:21:18.639Z,995.64
2018-03-01T02:21:59.196Z,995.68
2018-03-01T02:22:39.660Z,995.67
2018-03-01T02:23:20.200Z,995.8
2018-03-01T02:24:00.720Z,995.66
2018-03-01T02:24:41.228Z,995.63
2018-03-01T02:25:21.794Z,995.64
2018-03-01T02:27:50.248Z,995.59
2018-03-01T02:28:30.745Z,995.53
2018-03-01T02:29:11.294Z,995.51
2018-03-01T02:29:51.785Z,995.53
2018-03-01T02:30:32.290Z,995.46
2018-03-01T02:31:12.791Z,995.65
2018-03-01T02:31:53.317Z,995.66
2018-03-01T02:32:33.811Z,995.56
2018-03-01T02:33:14.325Z,995.55
2018-03-01T02:33:54.816Z,995.53
2018-03-01T02:34:35.330Z,995.53
2018-03-01T02:35:15.840Z,995.43
2018-03-01T02:35:56.350Z,995.53
2018-03-01T02:36:36.852Z,995.5
2018-03-01T02:37:17.367Z,995.44
2018-03-01T02:37:57.876Z,995.47
2018-03-01T02:38:38.381Z,995.44
2018-03-01T02:39:18.922Z,995.49
2018-03-01T02:39:59.451Z,995.38
2018-03-01T02:40:39.964Z,995.42
2018-03-01T02:41:20.492Z,995.39
2018-03-01T02:42:01.055Z,995.37
2018-03-01T02:42:41.591Z,995.29
2018-03-01T02:43:22.101Z,995.33
2018-03-01T02:44:02.633Z,995.32
2018-03-01T02:44:43.151Z,995.4
2018-03-01T02:45:23.675Z,995.44
2018-03-01T02:46:04.181Z,995.44
2018-03-01T02:48:02.394Z,995.47
2018-03-01T02:48:42.894Z,995.54
2018-03-01T02:49:23.409Z,995.54
2018-03-01T02:50:03.903Z,995.53
2018-03-01T02:50:44.408Z,995.59
2018-03-01T02:51:24.916Z,995.6
2018-03-01T02:52:05.416Z,995.63
2018-03-01T02:52:45.921Z,995.66
2018-03-01T02:53:26.428Z,995.6
2018-03-01T02:54:06.970Z,995.59
2018-03-01T02:54:47.482Z,995.68
2018-03-01T02:55:27.991Z,995.66
2018-03-01T02:56:08.499Z,995.58
2018-03-01T02:56:49.013Z,995.67
2018-03-01T02:57:29.512Z,995.66
2018-03-01T02:58:10.048Z,995.71
2018-03-01T02:58:50.550Z,995.61
2018-03-01T02:59:31.090Z,995.67
2018-03-01T03:00:11.595Z,995.72
2018-03-01T03:00:52.111Z,995.68
2018-03-01T03:01:32.626Z,995.61
2018-03-01T03:02:13.139Z,995.6
2018-03-01T03:02:53.643Z,995.62
2018-03-01T03:03:34.145Z,995.58
2018-03-01T03:04:14.654Z,995.61
2018-03-01T03:04:55.167Z,995.54
2018-03-01T03:05:35.694Z,995.63
2018-03-01T03:06:16.184Z,995.57
2018-03-01T03:06:56.707Z,995.51
2018-03-01T03:07:37.204Z,995.54
2018-03-01T03:08:17.713Z,995.47
2018-03-01T03:08:58.224Z,995.54
2018-03-01T03:09:38.746Z,995.45
2018-03-01T03:10:19.262Z,995.47
2018-03-01T03:10:59.772Z,995.43
2018-03-01T03:11:40.281Z,995.47
2018-03-01T03:12:20.793Z,995.56
2018-03-01T03:13:01.298Z,995.5
2018-03-01T03:13:41.823Z,995.62
2018-03-01T03:14:22.354Z,995.61
2018-03-01T03:15:02.876Z,995.5
2018-03-01T03:15:43.395Z,995.5
2018-03-01T03:16:23.904Z,995.51
2018-03-01T03:17:04.407Z,995.47
2018-03-01T03:17:44.898Z,995.47
2018-03-01T03:18:25.413Z,995.42
2018-03-01T03:19:05.934Z,995.49
2018-03-01T03:19:46.443Z,995.5
2018-03-01T03:20:26.959Z,995.49
2018-03-01T03:21:07.490Z,995.42
2018-03-01T03:21:48.022Z,995.42
2018-03-01T03:22:28.536Z,995.45
2018-03-01T03:23:09.081Z,995.33
2018-03-01T03:23:49.608Z,995.33
2018-03-01T03:24:30.119Z,995.36
2018-03-01T03:25:10.641Z,995.39
2018-03-01T03:25:51.155Z,995.29
2018-03-01T03:26:31.668Z,995.3
2018-03-01T03:27:12.204Z,995.32
2018-03-01T03:27:52.689Z,995.41
2018-03-01T03:28:33.185Z,995.38
2018-03-01T03:29:13.693Z,995.21
2018-03-01T03:29:54.204Z,995.23
2018-03-01T03:30:34.712Z,995.32
2018-03-01T03:31:15.218Z,995.26
2018-03-01T03:31:55.728Z,995.27
2018-03-01T03:34:14.141Z,995.22
2018-03-01T03:34:54.655Z,995.34
2018-03-01T03:35:35.180Z,995.29
2018-03-01T03:36:15.698Z,995.26
2018-03-01T03:36:56.205Z,995.19
2018-03-01T03:37:36.719Z,995.23
2018-03-01T03:38:17.218Z,995.27
2018-03-01T03:38:57.741Z,995.17
2018-03-01T03:39:38.254Z,995.28
2018-03-01T03:40:18.766Z,995.26
2018-03-01T03:40:59.268Z,995.24
2018-03-01T03:41:39.769Z,995.25
2018-03-01T03:42:20.279Z,995.31
2018-03-01T03:43:00.795Z,995.19
2018-03-01T03:43:41.310Z,995.34
2018-03-01T03:44:21.829Z,995.15
2018-03-01T03:45:02.331Z,995.19
2018-03-01T03:45:42.844Z,995.17
2018-03-01T03:46:23.360Z,995.14
2018-03-01T03:47:03.872Z,995.05
2018-03-01T03:47:44.368Z,995.15
2018-03-01T03:48:24.874Z,995.13
2018-03-01T03:49:05.382Z,995.13
2018-03-01T03:49:45.892Z,995.05
2018-03-01T03:50:26.399Z,995.18
2018-03-01T03:51:06.910Z,995.16
2018-03-01T03:51:47.412Z,995.12
2018-03-01T03:52:27.934Z,995.09
2018-03-01T03:53:08.444Z,995.13
2018-03-01T03:53:48.952Z,995.11
2018-03-01T03:54:29.470Z,995.06
2018-03-01T03:55:09.975Z,995.07
2018-03-01T03:55:50.476Z,995.06
2018-03-01T03:56:30.981Z,994.98
2018-03-01T03:57:11.475Z,995.07
2018-03-01T03:57:51.987Z,995.15
2018-03-01T03:58:32.497Z,995.11
2018-03-01T03:59:13.009Z,995.09
2018-03-01T03:59:53.501Z,995.07
2018-03-01T04:00:34.006Z,995.1
2018-03-01T04:01:14.504Z,995.13
2018-03-01T04:01:55.039Z,995.09
2018-03-01T04:02:35.601Z,995.01
2018-03-01T04:03:16.134Z,995.12
2018-03-01T04:03:56.656Z,995.12
2018-03-01T04:04:37.166Z,995.07
2018-03-01T04:05:17.702Z,995.01
2018-03-01T04:05:58.219Z,995.01
2018-03-01T04:06:38.723Z,995.01
2018-03-01T04:07:19.240Z,995
2018-03-01T04:07:59.746Z,994.95
2018-03-01T04:08:40.258Z,994.97
2018-03-01T04:09:20.771Z,994.92
2018-03-01T04:10:01.272Z,994.9
2018-03-01T04:10:41.785Z,994.91
2018-03-01T04:11:22.293Z,994.88
2018-03-01T04:12:02.844Z,994.91
2018-03-01T04:12:43.312Z,994.93
2018-03-01T04:13:23.824Z,994.96
2018-03-01T04:14:04.351Z,994.96
2018-03-01T04:14:44.864Z,994.94
2018-03-01T04:15:25.384Z,995.06
2018-03-01T04:16:05.898Z,994.99
2018-03-01T04:16:46.413Z,995.03
2018-03-01T04:17:26.901Z,995.01
2018-03-01T04:18:07.423Z,995.08
2018-03-01T04:18:47.934Z,995.09
2018-03-01T04:19:28.449Z,995.04
2018-03-01T04:20:08.950Z,994.97
2018-03-01T04:20:49.468Z,995.01
2018-03-01T04:21:29.976Z,994.96
2018-03-01T04:22:10.478Z,994.87
2018-03-01T04:22:51.009Z,994.93
2018-03-01T04:23:31.511Z,994.89
2018-03-01T04:24:12.017Z,994.91
2018-03-01T04:24:52.541Z,994.87
2018-03-01T04:25:33.045Z,994.91
2018-03-01T04:26:13.566Z,994.89
2018-03-01T04:26:54.082Z,994.94
2018-03-01T04:27:34.594Z,994.92
2018-03-01T04:28:15.145Z,994.95
2018-03-01T04:28:55.632Z,994.96
2018-03-01T04:29:36.142Z,994.99
2018-03-01T04:30:16.657Z,994.9
2018-03-01T04:30:57.164Z,994.97
2018-03-01T04:31:37.670Z,994.98
2018-03-01T04:32:18.177Z,994.95
2018-03-01T04:32:58.706Z,994.96
2018-03-01T04:33:39.207Z,994.94
2018-03-01T04:34:19.706Z,994.87
2018-03-01T04:35:00.214Z,994.93
2018-03-01T04:35:40.720Z,994.88
2018-03-01T04:36:21.234Z,994.92
2018-03-01T04:37:01.756Z,994.9
2018-03-01T04:37:42.274Z,994.9
2018-03-01T04:38:22.795Z,994.94
2018-03-01T04:39:03.304Z,994.94
2018-03-01T04:39:43.824Z,994.91
2018-03-01T04:40:24.331Z,994.91
2018-03-01T04:41:04.838Z,994.9
2018-03-01T04:41:45.359Z,994.91
2018-03-01T04:42:25.866Z,994.9
2018-03-01T04:43:06.373Z,994.86
2018-03-01T04:43:46.886Z,994.88
2018-03-01T04:44:27.413Z,994.88
2018-03-01T04:45:07.934Z,994.83
2018-03-01T04:45:48.466Z,994.77
2018-03-01T04:46:28.990Z,994.84
2018-03-01T04:47:09.503Z,994.8
2018-03-01T04:47:50.024Z,994.81
2018-03-01T04:48:30.552Z,994.83
2018-03-01T04:49:11.052Z,994.82
2018-03-01T04:49:51.554Z,994.81
2018-03-01T04:50:32.076Z,994.76
2018-03-01T04:51:12.594Z,994.71
2018-03-01T04:51:53.111Z,994.7
2018-03-01T04:52:33.640Z,994.77
2018-03-01T04:53:14.139Z,994.77
2018-03-01T04:53:54.649Z,994.75
2018-03-01T04:54:35.154Z,994.75
2018-03-01T04:55:15.661Z,994.79
2018-03-01T04:55:56.162Z,994.75
2018-03-01T04:56:36.698Z,994.68
2018-03-01T04:57:17.237Z,994.76
2018-03-01T04:57:57.733Z,994.74
2018-03-01T04:58:38.255Z,994.74
2018-03-01T04:59:18.774Z,994.73
2018-03-01T04:59:59.291Z,994.76
2018-03-01T05:00:39.793Z,994.77
2018-03-01T05:01:20.302Z,994.81
2018-03-01T05:02:00.815Z,994.76
2018-03-01T05:02:41.325Z,994.71
2018-03-01T05:03:21.836Z,994.73
2018-03-01T05:04:02.386Z,994.69
2018-03-01T05:04:42.893Z,994.67
2018-03-01T05:05:23.425Z,994.67
2018-03-01T05:06:03.930Z,994.64
2018-03-01T05:06:44.435Z,994.65
2018-03-01T05:07:24.952Z,994.69
2018-03-01T05:08:05.468Z,994.7
2018-03-01T05:08:45.979Z,994.72
2018-03-01T05:09:26.491Z,994.62
2018-03-01T05:10:07.003Z,994.66
2018-03-01T05:10:47.514Z,994.67
2018-03-01T05:11:28.079Z,994.58
2018-03-01T05:12:08.619Z,994.55
2018-03-01T05:12:49.100Z,994.5
2018-03-01T05:13:29.611Z,994.63
2018-03-01T05:14:10.112Z,994.55
2018-03-01T05:14:50.621Z,994.56
2018-03-01T05:15:31.115Z,994.57
2018-03-01T05:16:11.658Z,994.51
2018-03-01T05:16:52.134Z,994.49
2018-03-01T05:17:32.662Z,994.54
2018-03-01T05:18:13.141Z,994.47
2018-03-01T05:18:53.649Z,994.55
2018-03-01T05:19:34.206Z,994.53
2018-03-01T05:20:14.718Z,994.61
2018-03-01T05:20:55.230Z,994.49
2018-03-01T05:21:35.747Z,994.58
2018-03-01T05:22:16.266Z,994.47
2018-03-01T05:22:56.772Z,994.5
2018-03-01T05:23:37.282Z,994.55
2018-03-01T05:24:17.799Z,994.61
2018-03-01T05:24:58.298Z,994.45
2018-03-01T05:25:38.842Z,994.39
2018-03-01T05:26:19.357Z,994.44
2018-03-01T05:26:59.868Z,994.39
2018-03-01T05:27:40.380Z,994.34
2018-03-01T05:28:20.885Z,994.41
2018-03-01T05:29:01.401Z,994.49
2018-03-01T05:29:41.931Z,994.38
2018-03-01T05:30:22.463Z,994.36
2018-03-01T05:31:03.016Z,994.36
2018-03-01T05:31:43.520Z,994.34
2018-03-01T05:32:24.018Z,994.36
2018-03-01T05:33:04.541Z,994.43
2018-03-01T05:33:45.063Z,994.45
2018-03-01T05:34:25.581Z,994.37
2018-03-01T05:35:06.088Z,994.36
2018-03-01T05:35:46.591Z,994.35
2018-03-01T05:36:27.098Z,994.29
2018-03-01T05:37:07.602Z,994.34
2018-03-01T05:37:48.105Z,994.3
2018-03-01T05:38:28.632Z,994.37
2018-03-01T05:39:09.190Z,994.35
2018-03-01T05:39:49.702Z,994.35
2018-03-01T05:40:30.202Z,994.36
2018-03-01T05:41:10.738Z,994.31
2018-03-01T05:41:51.220Z,994.27
2018-03-01T05:42:31.731Z,994.31
2018-03-01T05:43:12.238Z,994.34
2018-03-01T05:43:52.747Z,994.21
2018-03-01T05:44:33.271Z,994.31
2018-03-01T05:45:13.777Z,994.32
2018-03-01T05:45:54.290Z,994.17
2018-03-01T05:46:34.781Z,994.23
2018-03-01T05:47:15.296Z,994.15
2018-03-01T05:47:55.795Z,994.13
2018-03-01T05:48:36.331Z,994.17
2018-03-01T05:49:16.833Z,994.11
2018-03-01T05:49:57.345Z,994.11
2018-03-01T05:50:37.857Z,994.17
2018-03-01T05:51:18.357Z,994.08
2018-03-01T05:51:58.879Z,994.19
2018-03-01T05:52:39.394Z,994.09
2018-03-01T05:53:20.011Z,994.1
2018-03-01T05:54:00.508Z,994.1
2018-03-01T05:54:41.013Z,994.08
2018-03-01T05:55:21.540Z,994.26
2018-03-01T05:56:02.074Z,994.11
2018-03-01T05:56:42.563Z,994.13
2018-03-01T05:57:23.104Z,994.17
2018-03-01T05:58:03.594Z,994.04
2018-03-01T05:58:44.175Z,994.17
2018-03-01T05:59:24.656Z,994.09
2018-03-01T06:00:05.138Z,994.07
2018-03-01T06:00:45.725Z,994.09
2018-03-01T06:01:26.227Z,994.03
2018-03-01T06:02:06.755Z,994.06
2018-03-01T06:02:47.273Z,994.05
2018-03-01T06:03:27.787Z,994.1
2018-03-01T06:04:08.312Z,994.11
2018-03-01T06:04:48.845Z,994.1
2018-03-01T06:05:29.354Z,994.14
2018-03-01T06:06:09.876Z,994.06
2018-03-01T06:06:50.376Z,994.12
2018-03-01T06:07:30.884Z,994.17
2018-03-01T06:08:11.404Z,994.14
2018-03-01T06:08:51.907Z,994.13
2018-03-01T06:09:32.402Z,994.15
2018-03-01T06:10:12.913Z,994.06
2018-03-01T06:10:53.422Z,994.13
2018-03-01T06:11:33.924Z,994.15
2018-03-01T06:12:14.463Z,994.12
2018-03-01T06:12:54.987Z,994.04
2018-03-01T06:13:35.511Z,994.15
2018-03-01T06:14:16.021Z,994.1
2018-03-01T06:14:56.514Z,994.2
2018-03-01T06:15:37.005Z,994.12
2018-03-01T06:16:17.535Z,994.11
2018-03-01T06:16:58.012Z,994.11
2018-03-01T06:17:38.530Z,994.13
2018-03-01T06:18:19.036Z,994.1
2018-03-01T06:18:59.568Z,994.13
2018-03-01T06:19:40.067Z,994.11
2018-03-01T06:20:20.583Z,994.08
2018-03-01T06:21:01.093Z,994.11
2018-03-01T06:21:41.608Z,994.15
2018-03-01T06:22:22.112Z,994.18
2018-03-01T06:23:02.635Z,994.16
2018-03-01T06:23:43.160Z,994.19
2018-03-01T06:24:23.672Z,994.22
2018-03-01T06:25:04.178Z,994.21
2018-03-01T06:25:44.672Z,994.16
2018-03-01T06:26:25.209Z,994.18
2018-03-01T06:27:05.689Z,994.14
2018-03-01T06:27:46.204Z,994.2
2018-03-01T06:28:26.713Z,994.3
2018-03-01T06:29:07.213Z,994.18
2018-03-01T06:29:48.048Z,994.25
2018-03-01T06:30:28.368Z,994.15
2018-03-01T06:31:08.876Z,994.32
2018-03-01T06:31:49.383Z,994.29
2018-03-01T06:32:29.893Z,994.2
2018-03-01T06:33:10.409Z,994.23
2018-03-01T06:33:50.933Z,994.22
2018-03-01T06:34:31.495Z,994.18
2018-03-01T06:35:11.980Z,994.22
2018-03-01T06:35:52.488Z,994.27
2018-03-01T06:36:32.994Z,994.21
2018-03-01T06:37:13.511Z,994.25
2018-03-01T06:37:54.032Z,994.24
2018-03-01T06:38:34.574Z,994.27
2018-03-01T06:39:15.084Z,994.28
2018-03-01T06:39:55.681Z,994.24
2018-03-01T06:40:36.196Z,994.16
2018-03-01T06:41:17.371Z,994.29
2018-03-01T06:41:58.839Z,994.29
2018-03-01T06:42:39.437Z,994.26
2018-03-01T06:43:21.073Z,994.18
2018-03-01T06:44:02.392Z,994.16
2018-03-01T06:44:42.932Z,994.12
2018-03-01T06:45:23.656Z,994.19
2018-03-01T06:46:03.956Z,994.16
2018-03-01T06:46:44.462Z,994.23
2018-03-01T06:47:24.970Z,994.14
2018-03-01T06:48:05.550Z,994.25
2018-03-01T06:48:46.038Z,994.31
2018-03-01T06:49:26.600Z,994.16
2018-03-01T06:50:07.060Z,994.18
2018-03-01T06:50:47.582Z,994.12
2018-03-01T06:51:28.102Z,994.23
2018-03-01T06:52:08.634Z,994.23
2018-03-01T06:52:49.130Z,994.16
2018-03-01T06:53:29.637Z,994.15
2018-03-01T06:54:10.569Z,994.04
2018-03-01T06:54:51.203Z,994.09
2018-03-01T06:55:31.700Z,994.03
2018-03-01T06:56:12.207Z,994.11
2018-03-01T06:56:52.832Z,994.14
2018-03-01T06:57:33.331Z,994.04
2018-03-01T06:58:13.843Z,993.97
2018-03-01T06:58:54.364Z,994.12
2018-03-01T06:59:34.960Z,994.12
2018-03-01T07:00:15.440Z,994.11
2018-03-01T07:00:56.937Z,994.1
2018-03-01T07:01:37.736Z,994.1
2018-03-01T07:02:18.045Z,994.1
2018-03-01T07:02:58.666Z,994.09
2018-03-01T07:03:39.184Z,994.07
2018-03-01T07:04:19.679Z,994.14
2018-03-01T07:05:00.208Z,994.11
2018-03-01T07:05:40.713Z,994.03
2018-03-01T07:06:21.247Z,994.02
2018-03-01T07:07:01.795Z,994.07
2018-03-01T07:07:42.317Z,994.06
2018-03-01T07:08:22.828Z,993.98
2018-03-01T07:09:03.339Z,993.96
2018-03-01T07:09:43.896Z,993.97
2018-03-01T07:10:24.402Z,994.01
2018-03-01T07:11:05.715Z,993.96
2018-03-01T07:11:46.214Z,993.97
2018-03-01T07:12:26.760Z,993.96
2018-03-01T07:13:07.276Z,993.96
2018-03-01T07:13:47.800Z,994
2018-03-01T07:14:28.331Z,993.98
2018-03-01T07:15:08.820Z,993.92
2018-03-01T07:15:49.351Z,993.97
2018-03-01T07:16:29.872Z,993.97
2018-03-01T07:17:10.398Z,993.97
2018-03-01T07:17:50.978Z,993.95
2018-03-01T07:18:31.432Z,993.9
2018-03-01T07:19:11.978Z,993.96
2018-03-01T07:19:52.487Z,993.89
2018-03-01T07:20:33.002Z,993.94
2018-03-01T07:21:13.518Z,993.87
2018-03-01T07:21:54.049Z,993.88
2018-03-01T07:22:34.675Z,993.87
2018-03-01T07:23:15.064Z,993.81
2018-03-01T07:23:55.584Z,993.86
2018-03-01T07:24:36.087Z,993.86
2018-03-01T07:25:16.696Z,993.74
2018-03-01T07:25:57.190Z,993.73
2018-03-01T07:26:37.738Z,993.82
2018-03-01T07:27:18.284Z,993.8
2018-03-01T07:27:58.793Z,993.8
2018-03-01T07:28:39.444Z,993.76
2018-03-01T07:29:19.980Z,993.84
2018-03-01T07:30:00.476Z,993.81
2018-03-01T07:30:41.178Z,993.81
2018-03-01T07:31:21.646Z,993.8
2018-03-01T07:32:02.172Z,993.85
2018-03-01T07:32:42.688Z,993.81
2018-03-01T07:33:23.191Z,993.85
2018-03-01T07:34:03.699Z,993.82
2018-03-01T07:34:44.217Z,993.71
2018-03-01T07:35:24.740Z,993.79
2018-03-01T07:36:05.940Z,993.77
2018-03-01T07:36:46.453Z,993.72
2018-03-01T07:37:26.963Z,993.74
2018-03-01T07:38:07.556Z,993.78
2018-03-01T07:38:48.100Z,993.76
2018-03-01T07:39:28.620Z,993.76
2018-03-01T07:40:09.104Z,993.78
2018-03-01T07:40:49.632Z,993.79
2018-03-01T07:41:30.185Z,993.77
2018-03-01T07:42:10.704Z,993.84
2018-03-01T07:42:51.208Z,993.79
2018-03-01T07:43:31.731Z,993.76
2018-03-01T07:44:12.237Z,993.85
2018-03-01T07:44:52.755Z,993.8
2018-03-01T07:45:33.302Z,993.76
2018-03-01T07:46:13.790Z,993.78
2018-03-01T07:46:54.309Z,993.78
2018-03-01T07:47:35.634Z,993.83
2018-03-01T07:48:16.070Z,993.73
2018-03-01T07:48:56.570Z,993.86
2018-03-01T07:49:37.068Z,993.8
2018-03-01T07:50:17.584Z,993.77
2018-03-01T07:50:58.069Z,993.83
2018-03-01T07:51:38.577Z,993.9
2018-03-01T07:52:19.233Z,993.8
2018-03-01T07:52:59.727Z,993.71
2018-03-01T07:53:40.311Z,993.72
2018-03-01T07:54:20.816Z,993.66
2018-03-01T07:55:01.579Z,993.71
2018-03-01T07:55:42.845Z,993.74
2018-03-01T07:56:23.294Z,993.77
2018-03-01T07:57:03.796Z,993.72
2018-03-01T07:57:44.359Z,993.72
2018-03-01T07:58:24.846Z,993.71
2018-03-01T07:59:05.340Z,993.7
2018-03-01T07:59:45.850Z,993.76
2018-03-01T08:00:26.345Z,993.68
2018-03-01T08:01:06.840Z,993.66
2018-03-01T08:01:47.385Z,993.64
2018-03-01T08:02:27.912Z,993.64
2018-03-01T08:03:08.420Z,993.61
2018-03-01T08:03:48.924Z,993.59
2018-03-01T08:04:29.438Z,993.6
2018-03-01T08:05:10.098Z,993.66
2018-03-01T08:05:50.493Z,993.58
2018-03-01T08:06:31.025Z,993.62
2018-03-01T08:07:11.547Z,993.65
2018-03-01T08:07:52.064Z,993.59
2018-03-01T08:08:32.593Z,993.61
2018-03-01T08:09:13.099Z,993.63
2018-03-01T08:09:53.600Z,993.61
2018-03-01T08:10:34.128Z,993.63
2018-03-01T08:11:14.696Z,993.6
2018-03-01T08:11:55.159Z,993.61
2018-03-01T08:12:35.679Z,993.64
2018-03-01T08:13:16.185Z,993.69
2018-03-01T08:13:56.703Z,993.64
2018-03-01T08:14:37.223Z,993.66
2018-03-01T08:15:17.734Z,993.65
2018-03-01T08:15:58.268Z,993.62
2018-03-01T08:16:38.778Z,993.62
2018-03-01T08:17:19.303Z,993.61
2018-03-01T08:17:59.823Z,993.66
2018-03-01T08:18:40.348Z,993.56
2018-03-01T08:19:20.846Z,993.6
2018-03-01T08:20:01.372Z,993.6
2018-03-01T08:20:41.864Z,993.62
2018-03-01T08:21:22.376Z,993.52
2018-03-01T08:23:40.678Z,993.5
2018-03-01T08:24:21.190Z,993.44
2018-03-01T08:25:01.751Z,993.46
2018-03-01T08:25:42.538Z,993.44
2018-03-01T08:26:23.049Z,993.61
2018-03-01T08:27:03.552Z,993.43
2018-03-01T08:27:44.056Z,993.43
2018-03-01T08:28:24.577Z,993.44
2018-03-01T08:29:05.092Z,993.52
2018-03-01T08:29:45.598Z,993.35
2018-03-01T08:30:26.108Z,993.53
2018-03-01T08:31:06.611Z,993.53
2018-03-01T08:31:47.196Z,993.41
2018-03-01T08:32:27.710Z,993.55
2018-03-01T08:33:08.290Z,993.46
2018-03-01T08:33:48.720Z,993.5